createdAt,value
2023-03-19T00:02:16.591Z,100252.34
2023-03-19T00:04:44.557Z,100257.91
2023-03-19T00:07:11.325Z,100252.72
2023-03-19T00:09:38.423Z,100256.31
2023-03-19T00:12:05.196Z,100254.81
2023-03-19T00:14:31.695Z,100260.69
2023-03-19T00:16:58.199Z,100264.31
2023-03-19T00:19:25.224Z,100279.03
2023-03-19T00:21:52.221Z,100284.66
2023-03-19T00:24:21.862Z,100289.06
2023-03-19T00:26:48.575Z,100296.97
2023-03-19T00:29:16.560Z,100299.31
2023-03-19T00:31:42.974Z,100293.09
2023-03-19T00:34:13.239Z,100296.66
2023-03-19T00:36:39.748Z,100276.78
2023-03-19T00:39:12.432Z,100271.25
2023-03-19T00:41:39.005Z,100262.44
2023-03-19T00:44:06.691Z,100271.59
2023-03-19T00:46:34.044Z,100259.06
2023-03-19T00:49:00.599Z,100257.00
2023-03-19T00:51:27.000Z,100255.72
2023-03-19T00:53:54.101Z,100254.72
2023-03-19T00:56:20.521Z,100259.28
2023-03-19T00:58:47.389Z,100253.81
2023-03-19T01:01:16.927Z,100254.16
2023-03-19T01:03:48.623Z,100262.53
2023-03-19T01:06:17.232Z,100271.19
2023-03-19T01:08:43.795Z,100274.25
2023-03-19T01:11:14.665Z,100293.41
2023-03-19T01:13:42.211Z,100296.22
2023-03-19T01:16:09.264Z,100295.22
2023-03-19T01:18:36.204Z,100280.94
2023-03-19T01:21:06.265Z,100282.88
2023-03-19T01:23:37.506Z,100277.91
2023-03-19T01:26:06.580Z,100270.56
2023-03-19T01:28:33.406Z,100262.19
2023-03-19T01:31:09.204Z,100270.34
2023-03-19T01:33:37.407Z,100270.88
2023-03-19T01:36:05.921Z,100276.34
2023-03-19T01:38:32.641Z,100270.31
2023-03-19T01:40:59.575Z,100270.25
2023-03-19T01:43:28.469Z,100289.22
2023-03-19T01:45:59.059Z,100295.06
2023-03-19T01:48:36.588Z,100298.16
2023-03-19T01:51:03.574Z,100293.59
2023-03-19T01:53:34.904Z,100296.53
2023-03-19T01:56:22.291Z,100293.25
2023-03-19T01:58:53.237Z,100300.13
2023-03-19T02:01:21.003Z,100306.41
2023-03-19T02:03:50.449Z,100289.50
2023-03-19T02:06:18.922Z,100298.22
2023-03-19T02:08:46.691Z,100302.47
2023-03-19T02:11:13.710Z,100302.47
2023-03-19T02:13:40.088Z,100311.94
2023-03-19T02:16:07.046Z,100308.03
2023-03-19T02:18:33.551Z,100310.28
2023-03-19T02:21:09.614Z,100312.78
2023-03-19T02:23:55.743Z,100310.50
2023-03-19T02:26:24.687Z,100310.53
2023-03-19T02:28:53.129Z,100323.50
2023-03-19T02:31:20.990Z,100314.38
2023-03-19T02:34:00.861Z,100320.91
2023-03-19T02:36:38.776Z,100321.41
2023-03-19T02:39:16.255Z,100315.25
2023-03-19T02:41:43.315Z,100313.97
2023-03-19T02:44:11.712Z,100310.16
2023-03-19T02:46:38.344Z,100310.53
2023-03-19T02:49:05.413Z,100311.38
2023-03-19T02:51:34.163Z,100314.19
2023-03-19T02:54:00.963Z,100319.75
2023-03-19T02:56:27.567Z,100329.56
2023-03-19T02:58:58.993Z,100323.91
2023-03-19T03:01:28.740Z,100322.13
2023-03-19T03:03:55.478Z,100325.66
2023-03-19T03:06:21.863Z,100327.28
2023-03-19T03:08:48.602Z,100329.78
2023-03-19T03:11:17.596Z,100317.88
2023-03-19T03:13:43.979Z,100323.22
2023-03-19T03:16:10.424Z,100317.84
2023-03-19T03:18:37.624Z,100322.88
2023-03-19T03:21:04.082Z,100321.97
2023-03-19T03:23:35.097Z,100323.34
2023-03-19T03:26:06.772Z,100318.50
2023-03-19T03:28:33.168Z,100319.59
2023-03-19T03:31:01.057Z,100324.50
2023-03-19T03:33:27.534Z,100327.88
2023-03-19T03:35:54.315Z,100320.88
2023-03-19T03:38:23.620Z,100325.25
2023-03-19T03:40:52.556Z,100324.50
2023-03-19T03:43:21.048Z,100328.75
2023-03-19T03:45:49.974Z,100337.66
2023-03-19T03:48:17.240Z,100342.59
2023-03-19T03:50:43.828Z,100337.88
2023-03-19T03:53:12.516Z,100342.88
2023-03-19T03:55:40.152Z,100340.88
2023-03-19T03:58:06.916Z,100343.03
2023-03-19T04:00:33.826Z,100351.41
2023-03-19T04:03:00.528Z,100342.13
2023-03-19T04:05:26.934Z,100345.59
2023-03-19T04:07:53.664Z,100351.69
2023-03-19T04:10:20.393Z,100345.06
2023-03-19T04:12:47.640Z,100344.41
2023-03-19T04:15:16.836Z,100357.44
2023-03-19T04:17:43.354Z,100354.31
2023-03-19T04:20:11.068Z,100355.06
2023-03-19T04:22:37.761Z,100356.59
2023-03-19T04:25:04.947Z,100352.13
2023-03-19T04:27:34.397Z,100351.50
2023-03-19T04:30:01.324Z,100354.41
2023-03-19T04:32:33.516Z,100357.75
2023-03-19T04:34:59.923Z,100361.84
2023-03-19T04:37:29.064Z,100361.72
2023-03-19T04:39:58.048Z,100363.56
2023-03-19T04:42:24.836Z,100365.19
2023-03-19T04:44:51.463Z,100364.63
2023-03-19T04:47:18.184Z,100364.38
2023-03-19T04:49:44.560Z,100368.69
2023-03-19T04:52:11.198Z,100369.88
2023-03-19T04:54:40.209Z,100373.91
2023-03-19T04:57:09.091Z,100376.75
2023-03-19T04:59:35.825Z,100382.94
2023-03-19T05:02:04.773Z,100377.56
2023-03-19T05:04:31.246Z,100371.72
2023-03-19T05:06:58.268Z,100377.09
2023-03-19T05:09:24.837Z,100382.97
2023-03-19T05:11:51.650Z,100372.38
2023-03-19T05:14:18.121Z,100383.03
2023-03-19T05:16:46.817Z,100373.94
2023-03-19T05:19:13.218Z,100372.69
2023-03-19T05:21:42.875Z,100378.38
2023-03-19T05:24:09.217Z,100380.13
2023-03-19T05:26:35.628Z,100380.84
2023-03-19T05:29:03.471Z,100382.31
2023-03-19T05:31:32.395Z,100381.31
2023-03-19T05:33:58.909Z,100384.59
2023-03-19T05:36:25.796Z,100375.63
2023-03-19T05:38:54.604Z,100394.63
2023-03-19T05:41:21.291Z,100394.16
2023-03-19T05:43:50.031Z,100387.66
2023-03-19T05:46:16.556Z,100396.56
2023-03-19T05:48:43.242Z,100392.59
2023-03-19T05:51:12.437Z,100396.09
2023-03-19T05:53:44.174Z,100397.25
2023-03-19T05:56:10.924Z,100398.88
2023-03-19T05:58:38.369Z,100414.56
2023-03-19T06:01:05.021Z,100416.38
2023-03-19T06:03:32.376Z,100423.66
2023-03-19T06:06:04.143Z,100420.56
2023-03-19T06:08:30.984Z,100422.56
2023-03-19T06:10:59.745Z,100424.84
2023-03-19T06:13:26.217Z,100427.94
2023-03-19T06:15:52.722Z,100418.84
2023-03-19T06:18:19.212Z,100429.50
2023-03-19T06:20:51.224Z,100429.41
2023-03-19T06:23:17.621Z,100428.47
2023-03-19T06:25:44.102Z,100436.28
2023-03-19T06:28:13.275Z,100429.94
2023-03-19T06:30:42.708Z,100429.78
2023-03-19T06:33:09.262Z,100428.88
2023-03-19T06:35:36.429Z,100433.63
2023-03-19T06:38:03.077Z,100434.69
2023-03-19T06:40:29.600Z,100437.63
2023-03-19T06:42:56.403Z,100429.25
2023-03-19T06:45:22.894Z,100430.34
2023-03-19T06:47:50.607Z,100435.06
2023-03-19T06:50:18.276Z,100438.25
2023-03-19T06:52:45.052Z,100441.88
2023-03-19T06:55:12.249Z,100443.63
2023-03-19T06:57:38.949Z,100443.50
2023-03-19T07:00:06.684Z,100437.91
2023-03-19T07:02:36.630Z,100443.50
2023-03-19T07:05:03.935Z,100448.72
2023-03-19T07:07:30.378Z,100452.97
2023-03-19T07:09:59.249Z,100461.34
2023-03-19T07:12:28.287Z,100465.25
2023-03-19T07:14:56.311Z,100459.88
2023-03-19T07:17:24.103Z,100468.59
2023-03-19T07:19:51.022Z,100471.09
2023-03-19T07:22:17.744Z,100469.25
2023-03-19T07:24:44.632Z,100470.47
2023-03-19T07:27:11.319Z,100467.56
2023-03-19T07:29:38.217Z,100469.63
2023-03-19T07:32:04.854Z,100469.75
2023-03-19T07:34:33.354Z,100468.81
2023-03-19T07:37:02.590Z,100474.91
2023-03-19T07:39:31.306Z,100472.31
2023-03-19T07:41:57.864Z,100470.69
2023-03-19T07:44:29.127Z,100472.75
2023-03-19T07:47:00.636Z,100472.91
2023-03-19T07:49:27.253Z,100477.88
2023-03-19T07:51:53.720Z,100484.28
2023-03-19T07:54:23.653Z,100480.53
2023-03-19T07:56:52.377Z,100480.53
2023-03-19T07:59:18.742Z,100475.16
2023-03-19T08:01:47.593Z,100477.06
2023-03-19T08:04:14.032Z,100472.84
2023-03-19T08:06:43.108Z,100463.00
2023-03-19T08:09:14.128Z,100461.19
2023-03-19T08:11:42.656Z,100462.19
2023-03-19T08:14:09.000Z,100468.09
2023-03-19T08:16:35.473Z,100464.16
2023-03-19T08:19:02.175Z,100469.22
2023-03-19T08:21:29.681Z,100462.31
2023-03-19T08:23:56.074Z,100465.97
2023-03-19T08:26:22.519Z,100461.34
2023-03-19T08:28:48.965Z,100468.47
2023-03-19T08:31:15.913Z,100455.88
2023-03-19T08:33:42.378Z,100458.00
2023-03-19T08:36:11.852Z,100463.22
2023-03-19T08:38:41.524Z,100457.69
2023-03-19T08:41:09.282Z,100467.44
2023-03-19T08:43:37.345Z,100465.13
2023-03-19T08:46:05.444Z,100463.75
2023-03-19T08:48:32.095Z,100459.34
2023-03-19T08:51:02.454Z,100462.69
2023-03-19T08:53:29.932Z,100471.41
2023-03-19T08:56:01.459Z,100471.47
2023-03-19T08:58:31.375Z,100473.22
2023-03-19T09:01:05.180Z,100472.69
2023-03-19T09:03:32.223Z,100474.69
2023-03-19T09:06:01.232Z,100474.56
2023-03-19T09:08:31.305Z,100470.88
2023-03-19T09:10:57.898Z,100473.53
2023-03-19T09:13:25.472Z,100475.53
2023-03-19T09:15:52.823Z,100473.81
2023-03-19T09:18:21.517Z,100472.81
2023-03-19T09:20:48.052Z,100465.59
2023-03-19T09:23:14.582Z,100464.13
2023-03-19T09:25:41.196Z,100471.84
2023-03-19T09:28:08.048Z,100469.25
2023-03-19T09:30:34.804Z,100482.19
2023-03-19T09:33:04.055Z,100477.16
2023-03-19T09:35:31.501Z,100475.59
2023-03-19T09:37:59.049Z,100466.72
2023-03-19T09:40:41.980Z,100474.06
2023-03-19T09:43:40.920Z,100480.63
2023-03-19T09:46:22.734Z,100480.69
2023-03-19T09:48:57.971Z,100487.78
2023-03-19T09:51:44.984Z,100482.78
2023-03-19T09:54:35.631Z,100487.44
2023-03-19T09:57:04.614Z,100489.34
2023-03-19T09:59:31.369Z,100484.56
2023-03-19T10:02:22.714Z,100487.56
2023-03-19T10:05:01.316Z,100486.44
2023-03-19T10:07:41.756Z,100483.94
2023-03-19T10:10:26.952Z,100484.47
2023-03-19T10:13:02.624Z,100487.56
2023-03-19T10:15:32.271Z,100481.88
2023-03-19T10:18:11.319Z,100477.03
2023-03-19T10:20:57.828Z,100474.91
2023-03-19T10:23:38.566Z,100476.75
2023-03-19T10:26:09.365Z,100476.53
2023-03-19T10:28:36.673Z,100470.09
2023-03-19T10:31:17.528Z,100468.06
2023-03-19T10:33:46.013Z,100474.09
2023-03-19T10:36:14.898Z,100463.91
2023-03-19T10:38:44.396Z,100451.81
2023-03-19T10:41:38.950Z,100458.63
2023-03-19T10:44:31.100Z,100450.47
2023-03-19T10:47:13.933Z,100453.19
2023-03-19T10:49:42.581Z,100446.63
2023-03-19T10:52:20.159Z,100447.19
2023-03-19T10:54:55.253Z,100447.22
2023-03-19T10:57:29.530Z,100451.81
2023-03-19T10:59:56.018Z,100451.13
2023-03-19T11:02:27.817Z,100447.78
2023-03-19T11:05:14.433Z,100442.69
2023-03-19T11:07:41.108Z,100444.84
2023-03-19T11:10:19.631Z,100449.03
2023-03-19T11:12:55.843Z,100449.34
2023-03-19T11:15:27.771Z,100448.75
2023-03-19T11:18:01.431Z,100448.84
2023-03-19T11:20:36.798Z,100450.97
2023-03-19T11:23:12.570Z,100452.41
2023-03-19T11:25:42.113Z,100449.66
2023-03-19T11:28:18.130Z,100444.59
2023-03-19T11:30:51.934Z,100450.97
2023-03-19T11:33:33.117Z,100454.06
2023-03-19T11:36:27.586Z,100443.63
2023-03-19T11:39:21.116Z,100440.53
2023-03-19T11:42:19.959Z,100437.84
2023-03-19T11:45:19.000Z,100442.44
2023-03-19T11:48:11.151Z,100440.38
2023-03-19T11:50:48.608Z,100442.34
2023-03-19T11:53:35.127Z,100441.91
2023-03-19T11:56:39.736Z,100437.28
2023-03-19T11:59:13.987Z,100440.75
2023-03-19T12:02:18.148Z,100434.09
2023-03-19T12:05:24.190Z,100433.50
2023-03-19T12:07:53.534Z,100434.81
2023-03-19T12:10:40.054Z,100433.63
2023-03-19T12:13:29.650Z,100441.03
2023-03-19T12:16:46.457Z,100438.66
2023-03-19T12:19:39.478Z,100435.41
2023-03-19T12:22:16.119Z,100438.13
2023-03-19T12:25:04.967Z,100429.84
2023-03-19T12:27:50.688Z,100431.59
2023-03-19T12:30:32.298Z,100426.91
2023-03-19T12:33:19.489Z,100419.94
2023-03-19T12:35:53.150Z,100424.53
2023-03-19T12:38:41.651Z,100423.63
2023-03-19T12:41:23.224Z,100422.31
2023-03-19T12:44:05.023Z,100428.25
2023-03-19T12:46:37.502Z,100435.59
2023-03-19T12:49:39.974Z,100434.78
2023-03-19T12:52:18.683Z,100436.72
2023-03-19T12:55:06.163Z,100432.91
2023-03-19T12:57:43.641Z,100434.50
2023-03-19T13:00:27.244Z,100442.78
2023-03-19T13:03:08.027Z,100441.03
2023-03-19T13:05:41.592Z,100439.31
2023-03-19T13:08:24.726Z,100440.44
2023-03-19T13:10:56.220Z,100440.72
2023-03-19T13:13:38.679Z,100443.91
2023-03-19T13:16:34.118Z,100441.81
2023-03-19T13:19:52.644Z,100438.94
2023-03-19T13:22:22.586Z,100445.44
2023-03-19T13:24:50.594Z,100452.97
2023-03-19T13:27:27.684Z,100459.84
2023-03-19T13:30:03.944Z,100455.81
2023-03-19T13:32:41.267Z,100451.28
2023-03-19T13:35:46.850Z,100458.63
2023-03-19T13:38:25.892Z,100461.53
2023-03-19T13:40:56.865Z,100455.88
2023-03-19T13:43:43.822Z,100460.78
2023-03-19T13:46:13.097Z,100463.28
2023-03-19T13:48:45.702Z,100468.78
2023-03-19T13:51:18.206Z,100462.91
2023-03-19T13:54:15.662Z,100470.88
2023-03-19T13:57:01.448Z,100467.66
2023-03-19T13:59:38.845Z,100464.19
2023-03-19T14:02:27.210Z,100466.00
2023-03-19T14:05:01.914Z,100473.16
2023-03-19T14:07:36.938Z,100467.81
2023-03-19T14:10:08.956Z,100469.88
2023-03-19T14:12:41.814Z,100468.63
2023-03-19T14:15:10.598Z,100466.72
2023-03-19T14:17:56.469Z,100464.91
2023-03-19T14:20:33.622Z,100465.91
2023-03-19T14:23:06.426Z,100459.47
2023-03-19T14:26:12.782Z,100463.31
2023-03-19T14:28:58.191Z,100457.63
2023-03-19T14:31:42.774Z,100457.16
2023-03-19T14:34:09.525Z,100461.81
2023-03-19T14:36:41.337Z,100453.88
2023-03-19T14:39:31.709Z,100456.25
2023-03-19T14:42:16.982Z,100454.84
2023-03-19T14:44:55.551Z,100450.47
2023-03-19T14:48:19.593Z,100454.84
2023-03-19T14:51:27.414Z,100455.06
2023-03-19T14:53:58.472Z,100458.50
2023-03-19T14:56:36.059Z,100450.84
2023-03-19T14:59:07.743Z,100453.97
2023-03-19T15:01:43.376Z,100450.31
2023-03-19T15:04:12.960Z,100453.47
2023-03-19T15:06:44.064Z,100453.38
2023-03-19T15:09:27.007Z,100446.66
2023-03-19T15:12:34.302Z,100444.47
2023-03-19T15:15:30.580Z,100450.31
2023-03-19T15:18:04.479Z,100445.88
2023-03-19T15:20:36.960Z,100440.97
2023-03-19T15:23:23.514Z,100441.53
2023-03-19T15:25:58.686Z,100437.38
2023-03-19T15:28:37.578Z,100442.63
2023-03-19T15:31:26.361Z,100446.47
2023-03-19T15:33:53.410Z,100442.69
2023-03-19T15:36:31.563Z,100441.66
2023-03-19T15:39:06.952Z,100454.69
2023-03-19T15:41:39.993Z,100453.66
2023-03-19T15:44:13.950Z,100445.56
2023-03-19T15:46:45.558Z,100449.88
2023-03-19T15:49:24.161Z,100453.41
2023-03-19T15:51:54.822Z,100443.97
2023-03-19T15:54:22.295Z,100449.47
2023-03-19T15:56:51.488Z,100452.38
2023-03-19T15:59:21.915Z,100462.06
2023-03-19T16:01:51.338Z,100460.16
2023-03-19T16:04:23.565Z,100455.84
2023-03-19T16:06:50.811Z,100467.66
2023-03-19T16:09:21.750Z,100461.78
2023-03-19T16:11:49.026Z,100455.09
2023-03-19T16:14:17.118Z,100454.72
2023-03-19T16:16:46.614Z,100459.69
2023-03-19T16:19:36.420Z,100456.28
2023-03-19T16:22:11.634Z,100463.91
2023-03-19T16:24:42.261Z,100459.06
2023-03-19T16:27:13.592Z,100460.91
2023-03-19T16:29:42.267Z,100459.25
2023-03-19T16:32:12.464Z,100461.78
2023-03-19T16:34:50.395Z,100466.69
2023-03-19T16:37:38.542Z,100472.59
2023-03-19T16:40:13.822Z,100471.19
2023-03-19T16:42:47.773Z,100480.97
2023-03-19T16:45:17.460Z,100488.31
2023-03-19T16:47:46.233Z,100482.81
2023-03-19T16:50:16.948Z,100489.97
2023-03-19T16:52:47.273Z,100494.66
2023-03-19T16:55:23.517Z,100497.31
2023-03-19T16:57:58.826Z,100500.16
2023-03-19T17:00:27.147Z,100518.53
2023-03-19T17:02:56.774Z,100512.19
2023-03-19T17:05:24.530Z,100516.03
2023-03-19T17:07:52.646Z,100523.38
2023-03-19T17:10:21.478Z,100523.97
2023-03-19T17:12:50.773Z,100522.06
2023-03-19T17:15:27.105Z,100529.66
2023-03-19T17:17:57.143Z,100528.78
2023-03-19T17:20:51.263Z,100531.84
2023-03-19T17:23:17.797Z,100536.34
2023-03-19T17:25:45.555Z,100539.44
2023-03-19T17:28:12.176Z,100544.69
2023-03-19T17:30:44.473Z,100541.16
2023-03-19T17:33:22.734Z,100545.47
2023-03-19T17:35:49.662Z,100551.53
2023-03-19T17:38:18.091Z,100551.88
2023-03-19T17:40:44.907Z,100555.16
2023-03-19T17:43:12.336Z,100551.69
2023-03-19T17:45:42.528Z,100557.09
2023-03-19T17:48:16.675Z,100563.63
2023-03-19T17:50:44.657Z,100569.06
2023-03-19T17:53:12.656Z,100576.75
2023-03-19T17:55:39.568Z,100578.44
2023-03-19T17:58:06.851Z,100578.97
2023-03-19T18:00:33.569Z,100572.81
2023-03-19T18:03:00.617Z,100577.59
2023-03-19T18:05:27.002Z,100583.56
2023-03-19T18:07:54.847Z,100581.66
2023-03-19T18:10:30.376Z,100591.09
2023-03-19T18:13:00.410Z,100589.97
2023-03-19T18:15:29.442Z,100593.47
2023-03-19T18:17:59.144Z,100600.56
2023-03-19T18:20:29.258Z,100602.59
2023-03-19T18:22:55.800Z,100613.63
2023-03-19T18:25:25.710Z,100605.34
2023-03-19T18:27:56.703Z,100606.00
2023-03-19T18:30:23.535Z,100612.41
2023-03-19T18:32:54.798Z,100608.66
2023-03-19T18:35:27.694Z,100616.03
2023-03-19T18:37:54.309Z,100615.03
2023-03-19T18:40:24.331Z,100617.88
2023-03-19T18:42:50.857Z,100617.03
2023-03-19T18:45:17.921Z,100612.13
2023-03-19T18:47:46.267Z,100620.69
2023-03-19T18:50:32.580Z,100617.59
2023-03-19T18:52:59.083Z,100627.31
2023-03-19T18:55:30.400Z,100625.72
2023-03-19T18:58:01.360Z,100623.69
2023-03-19T19:00:31.503Z,100638.53
2023-03-19T19:02:59.752Z,100629.00
2023-03-19T19:05:29.030Z,100618.19
2023-03-19T19:08:07.380Z,100640.25
2023-03-19T19:10:36.676Z,100641.56
2023-03-19T19:13:05.925Z,100639.94
2023-03-19T19:15:36.706Z,100639.25
2023-03-19T19:18:22.588Z,100647.97
2023-03-19T19:20:52.744Z,100646.50
2023-03-19T19:23:26.774Z,100641.56
2023-03-19T19:25:57.100Z,100641.97
2023-03-19T19:28:35.364Z,100647.06
2023-03-19T19:31:05.407Z,100650.88
2023-03-19T19:33:35.920Z,100655.59
2023-03-19T19:36:06.769Z,100657.72
2023-03-19T19:38:33.143Z,100661.13
2023-03-19T19:41:00.438Z,100668.28
2023-03-19T19:43:31.122Z,100667.66
2023-03-19T19:45:59.025Z,100660.91
2023-03-19T19:48:27.670Z,100668.69
2023-03-19T19:50:56.246Z,100673.91
2023-03-19T19:53:25.238Z,100674.94
2023-03-19T19:55:52.920Z,100675.78
2023-03-19T19:58:22.789Z,100678.88
2023-03-19T20:01:02.399Z,100677.53
2023-03-19T20:03:32.509Z,100687.91
2023-03-19T20:06:00.326Z,100688.97
2023-03-19T20:08:27.167Z,100700.69
2023-03-19T20:10:54.559Z,100710.44
2023-03-19T20:13:26.068Z,100706.31
2023-03-19T20:15:54.865Z,100711.97
2023-03-19T20:18:22.979Z,100719.31
2023-03-19T20:20:49.668Z,100726.91
2023-03-19T20:23:16.760Z,100722.66
2023-03-19T20:25:46.205Z,100728.75
2023-03-19T20:28:30.378Z,100734.19
2023-03-19T20:30:57.756Z,100734.53
2023-03-19T20:33:24.364Z,100735.88
2023-03-19T20:35:51.225Z,100736.22
2023-03-19T20:38:17.934Z,100726.69
2023-03-19T20:40:58.887Z,100734.09
2023-03-19T20:43:31.843Z,100736.06
2023-03-19T20:46:01.829Z,100743.78
2023-03-19T20:48:28.701Z,100744.28
2023-03-19T20:50:56.112Z,100743.28
2023-03-19T20:53:22.829Z,100743.97
2023-03-19T20:55:49.876Z,100751.19
2023-03-19T20:58:36.774Z,100758.41
2023-03-19T21:01:05.938Z,100760.56
2023-03-19T21:03:32.915Z,100764.69
2023-03-19T21:06:02.778Z,100767.66
2023-03-19T21:08:33.869Z,100771.59
2023-03-19T21:11:03.939Z,100766.81
2023-03-19T21:13:31.924Z,100774.22
2023-03-19T21:15:58.534Z,100772.56
2023-03-19T21:18:29.634Z,100777.66
2023-03-19T21:20:56.881Z,100784.03
2023-03-19T21:23:37.212Z,100786.03
2023-03-19T21:26:20.185Z,100787.50
2023-03-19T21:28:52.209Z,100785.19
2023-03-19T21:31:20.921Z,100789.31
2023-03-19T21:33:51.581Z,100795.03
2023-03-19T21:36:18.958Z,100792.06
2023-03-19T21:38:45.384Z,100794.25
2023-03-19T21:41:21.858Z,100795.19
2023-03-19T21:43:53.876Z,100797.31
2023-03-19T21:46:28.427Z,100796.81
2023-03-19T21:48:56.468Z,100804.66
2023-03-19T21:51:25.008Z,100796.97
2023-03-19T21:53:51.683Z,100793.47
2023-03-19T21:56:23.078Z,100800.59
2023-03-19T21:58:53.348Z,100805.81
2023-03-19T22:01:25.257Z,100800.56
2023-03-19T22:03:53.187Z,100806.16
2023-03-19T22:06:22.776Z,100811.25
2023-03-19T22:08:53.810Z,100815.38
2023-03-19T22:11:30.282Z,100810.47
2023-03-19T22:14:22.700Z,100819.09
2023-03-19T22:16:52.745Z,100826.16
2023-03-19T22:19:24.679Z,100820.25
2023-03-19T22:21:51.113Z,100822.72
2023-03-19T22:24:17.641Z,100825.84
2023-03-19T22:26:46.774Z,100818.63
2023-03-19T22:29:20.344Z,100825.19
2023-03-19T22:31:51.885Z,100832.09
2023-03-19T22:34:20.541Z,100829.31
2023-03-19T22:36:46.963Z,100829.97
2023-03-19T22:39:13.695Z,100830.81
2023-03-19T22:41:43.772Z,100829.34
2023-03-19T22:44:29.547Z,100822.78
2023-03-19T22:46:57.555Z,100825.91
2023-03-19T22:49:24.745Z,100826.06
2023-03-19T22:51:51.816Z,100827.25
2023-03-19T22:54:18.195Z,100828.38
2023-03-19T22:56:44.552Z,100833.34
2023-03-19T22:59:11.047Z,100833.66
2023-03-19T23:01:43.637Z,100826.06
2023-03-19T23:04:30.079Z,100831.19
2023-03-19T23:06:58.612Z,100822.78
2023-03-19T23:09:26.334Z,100820.00
2023-03-19T23:11:56.348Z,100818.66
2023-03-19T23:14:30.011Z,100810.25
2023-03-19T23:17:03.510Z,100813.56
2023-03-19T23:19:32.615Z,100817.84
2023-03-19T23:22:02.432Z,100815.69
2023-03-19T23:24:30.953Z,100808.47
2023-03-19T23:26:58.834Z,100809.47
2023-03-19T23:29:35.581Z,100810.94
2023-03-19T23:32:03.316Z,100806.97
2023-03-19T23:34:30.241Z,100812.56
2023-03-19T23:37:01.811Z,100814.56
2023-03-19T23:39:28.303Z,100811.41
2023-03-19T23:41:57.962Z,100812.91
2023-03-19T23:44:28.947Z,100816.06
2023-03-19T23:46:59.295Z,100816.38
2023-03-19T23:49:32.229Z,100812.91
2023-03-19T23:52:04.284Z,100821.13
2023-03-19T23:54:42.338Z,100821.63
2023-03-19T23:57:14.014Z,100829.34
2023-03-19T23:59:45.747Z,100830.88
